Time;durP1;ratioP1;P1;durP2;ratioP2;P2;SDS_P1;SDS_P2;PMS_P1;PMS_P2;Temp;Humidity;BMP_temperature;BMP_pressure;BME280_temperature;BME280_humidity;BME280_pressure;Samples;Min_cycle;Max_cycle;Signal;HPM_P1;HPM_P2
2023/01/14 00:00:27;;;;;;;4.38;1.15;;;;;;;;;;5033579;28;20038;-63
2023/01/14 00:02:59;;;;;;;1.80;1.10;;;;;;;;;;4989902;28;20049;-63
2023/01/14 00:05:32;;;;;;;3.75;1.25;;;;;;;;;;5044068;28;20049;-63
2023/01/14 00:08:04;;;;;;;3.08;1.10;;;;;;;;;;5043421;28;20041;-63
2023/01/14 00:10:37;;;;;;;4.00;1.73;;;;;;;;;;5007561;28;20053;-64
2023/01/14 00:13:08;;;;;;;2.28;1.38;;;;;;;;;;4994782;28;20054;-64
2023/01/14 00:15:56;;;;;;;3.80;1.65;;;;;;;;;;5023661;28;20053;-64
2023/01/14 00:18:27;;;;;;;5.50;1.83;;;;;;;;;;5040153;28;20048;-64
2023/01/14 00:21:14;;;;;;;3.03;1.50;;;;;;;;;;5037148;28;20052;-64
2023/01/14 00:23:45;;;;;;;6.78;1.40;;;;;;;;;;5007687;28;20050;-64
2023/01/14 00:26:17;;;;;;;3.70;1.45;;;;;;;;;;5023036;28;20057;-62
2023/01/14 00:28:50;;;;;;;;;;;;;;;;;;5019343;28;20053;-62
2023/01/14 00:31:25;;;;;;;2.78;1.55;;;;;;;;;;5008265;28;19922;-62
2023/01/14 00:34:01;;;;;;;4.38;1.65;;;;;;;;;;4976037;28;20065;-62
2023/01/14 00:36:52;;;;;;;2.55;1.50;;;;;;;;;;4956357;28;20054;-64
2023/01/14 00:39:26;;;;;;;4.82;1.23;;;;;;;;;;4937033;28;20527;-63
2023/01/14 00:41:58;;;;;;;2.55;1.48;;;;;;;;;;4930882;29;20055;-63
2023/01/14 00:44:30;;;;;;;3.30;1.45;;;;;;;;;;4884405;29;20062;-63
2023/01/14 00:47:21;;;;;;;9.52;1.73;;;;;;;;;;4914972;29;20086;-64
2023/01/14 00:49:53;;;;;;;3.88;1.88;;;;;;;;;;4855523;29;20060;-63
2023/01/14 00:52:24;;;;;;;3.03;1.60;;;;;;;;;;4856124;29;20684;-62
2023/01/14 00:54:57;;;;;;;3.60;2.03;;;;;;;;;;4884521;29;20068;-63
2023/01/14 00:57:29;;;;;;;8.13;1.48;;;;;;;;;;4858350;29;20060;-62
2023/01/14 01:00:00;;;;;;;3.55;1.70;;;;;;;;;;4874223;29;20061;-63
2023/01/14 01:02:33;;;;;;;3.33;1.60;;;;;;;;;;4873963;29;20564;-63
2023/01/14 01:05:05;;;;;;;6.13;1.95;;;;;;;;;;4859343;29;20059;-63
2023/01/14 01:07:36;;;;;;;4.40;1.25;;;;;;;;;;4874199;29;20532;-63
2023/01/14 01:10:08;;;;;;;7.15;1.75;;;;;;;;;;4843266;29;20529;-64
2023/01/14 01:12:41;;;;;;;6.88;1.65;;;;;;;;;;4859430;29;20069;-63
2023/01/14 01:15:12;;;;;;;4.80;1.85;;;;;;;;;;4874917;29;20068;-63
2023/01/14 01:17:46;;;;;;;4.35;2.08;;;;;;;;;;4896194;29;20057;-63
2023/01/14 01:20:17;;;;;;;7.38;2.25;;;;;;;;;;4846352;29;20512;-63
2023/01/14 01:22:49;;;;;;;4.53;1.83;;;;;;;;;;4846967;29;20584;-63
2023/01/14 01:25:26;;;;;;;12.25;2.15;;;;;;;;;;4913472;29;20501;-64
2023/01/14 01:27:59;;;;;;;5.85;2.03;;;;;;;;;;4929625;29;20067;-63
2023/01/14 01:30:31;;;;;;;8.45;2.50;;;;;;;;;;4930724;29;20067;-63
2023/01/14 01:33:02;;;;;;;4.38;1.83;;;;;;;;;;4920283;29;20063;-63
2023/01/14 01:35:33;;;;;;;3.78;1.85;;;;;;;;;;4927840;29;20071;-63
2023/01/14 01:38:25;;;;;;;5.78;2.13;;;;;;;;;;4933954;29;20055;-63
2023/01/14 01:41:00;;;;;;;8.75;3.15;;;;;;;;;;4926849;28;20050;-63
2023/01/14 01:43:33;;;;;;;5.47;2.17;;;;;;;;;;4955978;28;20063;-64
2023/01/14 01:46:24;;;;;;;6.05;2.20;;;;;;;;;;4914481;29;20052;-63
2023/01/14 01:49:05;;;;;;;4.43;2.00;;;;;;;;;;4914601;29;20417;-63
2023/01/14 01:51:46;;;;;;;4.53;2.15;;;;;;;;;;4883194;29;20068;-63
2023/01/14 01:54:22;;;;;;;4.47;2.22;;;;;;;;;;4913979;29;20056;-63
2023/01/14 01:56:54;;;;;;;4.32;2.00;;;;;;;;;;4894704;29;20056;-64
2023/01/14 01:59:32;;;;;;;4.80;1.80;;;;;;;;;;4896755;29;20060;-64
2023/01/14 02:02:04;;;;;;;8.57;2.25;;;;;;;;;;4914278;29;20420;-64
2023/01/14 02:04:35;;;;;;;3.50;2.08;;;;;;;;;;4913939;29;20059;-64
2023/01/14 02:07:17;;;;;;;3.40;1.90;;;;;;;;;;4914541;29;20067;-64
2023/01/14 02:09:52;;;;;;;6.78;1.98;;;;;;;;;;4917996;29;20063;-64
2023/01/14 02:12:44;;;;;;;4.05;2.03;;;;;;;;;;4911712;29;20535;-64
2023/01/14 02:15:55;;;;;;;6.63;1.73;;;;;;;;;;4894710;29;20056;-64
2023/01/14 02:18:28;;;;;;;2.25;1.38;;;;;;;;;;4812855;29;20069;-64
2023/01/14 02:21:20;;;;;;;3.83;1.90;;;;;;;;;;4821081;29;20078;-64
2023/01/14 02:24:11;;;;;;;3.60;1.90;;;;;;;;;;4836186;29;20049;-64
2023/01/14 02:26:54;;;;;;;5.13;2.10;;;;;;;;;;4839338;29;20554;-64
2023/01/14 02:30:06;;;;;;;5.40;2.28;;;;;;;;;;4840182;29;20065;-64
2023/01/14 02:32:57;;;;;;;3.92;1.90;;;;;;;;;;4895031;29;20048;-63
2023/01/14 02:35:35;;;;;;;4.80;2.03;;;;;;;;;;4894964;29;20072;-63
2023/01/14 02:38:47;;;;;;;4.60;1.98;;;;;;;;;;4894909;29;20413;-63
2023/01/14 02:41:19;;;;;;;3.22;2.22;;;;;;;;;;4820719;29;20061;-64
2023/01/14 02:44:10;;;;;;;5.13;1.85;;;;;;;;;;4853862;29;20053;-64
2023/01/14 02:46:54;;;;;;;7.28;2.17;;;;;;;;;;4841451;29;20049;-64
2023/01/14 02:49:30;;;;;;;5.78;2.30;;;;;;;;;;4857542;29;20064;-64
2023/01/14 02:52:07;;;;;;;4.90;1.80;;;;;;;;;;4844935;29;20064;-64
2023/01/14 02:54:40;;;;;;;3.72;1.67;;;;;;;;;;4856935;29;20487;-64
2023/01/14 02:57:34;;;;;;;3.25;2.00;;;;;;;;;;4875579;29;20057;-64
2023/01/14 03:00:17;;;;;;;3.60;1.80;;;;;;;;;;4857523;29;20073;-64
2023/01/14 03:03:02;;;;;;;3.47;1.67;;;;;;;;;;4856872;29;20061;-64
2023/01/14 03:05:46;;;;;;;4.35;1.60;;;;;;;;;;4857091;29;20053;-64
2023/01/14 03:09:00;;;;;;;6.38;1.55;;;;;;;;;;4838097;29;20054;-64
2023/01/14 03:12:02;;;;;;;8.25;2.08;;;;;;;;;;4735537;30;20068;-64
2023/01/14 03:15:09;;;;;;;3.42;1.80;;;;;;;;;;4720974;30;20049;-64
2023/01/14 03:18:00;;;;;;;4.68;1.80;;;;;;;;;;4698755;30;20069;-64
2023/01/14 03:20:36;;;;;;;5.78;2.50;;;;;;;;;;4713120;30;20435;-64
2023/01/14 03:23:13;;;;;;;4.25;1.90;;;;;;;;;;4712829;30;20057;-64
2023/01/14 03:25:48;;;;;;;6.85;1.88;;;;;;;;;;4766758;30;20060;-65
2023/01/14 03:28:32;;;;;;;4.55;1.90;;;;;;;;;;4765492;30;20208;-64
2023/01/14 03:31:12;;;;;;;5.63;2.40;;;;;;;;;;4748020;30;20056;-64
2023/01/14 03:34:01;;;;;;;7.78;2.47;;;;;;;;;;4741232;30;20068;-64
2023/01/14 03:36:36;;;;;;;9.52;2.45;;;;;;;;;;4713266;30;20467;-64
2023/01/14 03:39:18;;;;;;;4.68;2.58;;;;;;;;;;4713393;30;20065;-64
2023/01/14 03:45:20;;;;;;;5.07;2.38;;;;;;;;;;4730588;30;20063;-64
2023/01/14 03:47:53;;;;;;;8.57;2.25;;;;;;;;;;4727450;30;20068;-64
2023/01/14 03:50:28;;;;;;;3.90;2.10;;;;;;;;;;4770408;29;20058;-64
2023/01/14 03:53:20;;;;;;;7.80;2.78;;;;;;;;;;4797543;29;20050;-64
2023/01/14 03:56:08;;;;;;;5.55;2.72;;;;;;;;;;4872688;29;20072;-64
2023/01/14 03:58:56;;;;;;;5.57;2.90;;;;;;;;;;4887110;29;20061;-64
2023/01/14 04:01:30;;;;;;;9.25;3.03;;;;;;;;;;4893443;29;20071;-64
2023/01/14 04:04:01;;;;;;;7.30;3.70;;;;;;;;;;4907311;29;20071;-64
2023/01/14 04:06:32;;;;;;;7.53;3.83;;;;;;;;;;4951363;28;20062;-63
2023/01/14 04:09:05;;;;;;;7.93;3.58;;;;;;;;;;4994253;28;20414;-62
2023/01/14 04:11:36;;;;;;;6.55;3.10;;;;;;;;;;5003724;28;20056;-64
2023/01/14 04:16:56;;;;;;;7.18;2.90;;;;;;;;;;5030877;28;20481;-64
2023/01/14 04:19:26;;;;;;;5.97;2.95;;;;;;;;;;5031020;28;20053;-64
2023/01/14 04:21:55;;;;;;;5.45;3.08;;;;;;;;;;4979381;28;20060;-64
2023/01/14 04:24:25;;;;;;;6.53;3.03;;;;;;;;;;5031009;28;20044;-64
2023/01/14 04:26:56;;;;;;;7.88;3.28;;;;;;;;;;5031100;28;20048;-63
2023/01/14 04:29:27;;;;;;;8.30;3.20;;;;;;;;;;4996284;28;20054;-63
2023/01/14 04:31:57;;;;;;;7.93;3.20;;;;;;;;;;5012414;28;20049;-63
2023/01/14 04:34:27;;;;;;;7.40;2.92;;;;;;;;;;5030634;28;20050;-64
2023/01/14 04:36:57;;;;;;;8.15;2.90;;;;;;;;;;5030663;28;20046;-64
2023/01/14 04:39:27;;;;;;;8.05;2.90;;;;;;;;;;5030785;28;20052;-64
2023/01/14 04:44:47;;;;;;;4.63;2.72;;;;;;;;;;5030403;28;20042;-64
2023/01/14 04:47:17;;;;;;;6.55;2.70;;;;;;;;;;5030715;28;20048;-64
2023/01/14 04:49:48;;;;;;;5.72;2.85;;;;;;;;;;5030622;28;20045;-64
2023/01/14 04:52:18;;;;;;;5.13;2.75;;;;;;;;;;4995782;28;20064;-63
2023/01/14 04:54:49;;;;;;;5.25;2.80;;;;;;;;;;4998459;28;20053;-64
2023/01/14 04:57:19;;;;;;;7.18;3.33;;;;;;;;;;4943160;28;20061;-64
2023/01/14 04:59:49;;;;;;;7.15;2.75;;;;;;;;;;4960947;28;20062;-64
2023/01/14 05:02:19;;;;;;;6.07;3.10;;;;;;;;;;5008266;28;20054;-64
2023/01/14 05:04:49;;;;;;;10.52;3.00;;;;;;;;;;4959766;28;20053;-64
2023/01/14 05:07:19;;;;;;;9.25;3.10;;;;;;;;;;5008271;28;20061;-64
2023/01/14 05:09:49;;;;;;;6.30;3.38;;;;;;;;;;5008671;28;20414;-64
2023/01/14 05:12:19;;;;;;;6.03;2.95;;;;;;;;;;5011841;28;20061;-64
2023/01/14 05:14:49;;;;;;;7.80;2.80;;;;;;;;;;5012147;28;20046;-64
2023/01/14 05:17:19;;;;;;;8.00;2.97;;;;;;;;;;4964521;28;20541;-64
2023/01/14 05:19:49;;;;;;;5.00;2.65;;;;;;;;;;4979679;28;20066;-64
2023/01/14 05:22:19;;;;;;;5.78;2.47;;;;;;;;;;5011960;28;20054;-64
2023/01/14 05:24:49;;;;;;;7.57;2.70;;;;;;;;;;4979134;28;20533;-64
2023/01/14 05:27:18;;;;;;;5.70;2.72;;;;;;;;;;4963350;28;20065;-65
2023/01/14 05:29:49;;;;;;;9.00;3.08;;;;;;;;;;4972401;28;20438;-64
2023/01/14 05:32:18;;;;;;;5.75;2.92;;;;;;;;;;4982183;28;20057;-64
2023/01/14 05:34:49;;;;;;;6.55;3.05;;;;;;;;;;5030971;28;20058;-65
2023/01/14 05:37:19;;;;;;;8.27;3.22;;;;;;;;;;5031372;28;20049;-64
2023/01/14 05:39:49;;;;;;;9.45;3.40;;;;;;;;;;4981961;28;20049;-64
2023/01/14 05:48:00;;;;;;;10.52;3.22;;;;;;;;;;4991724;28;20511;-62
2023/01/14 05:50:32;;;;;;;10.57;3.47;;;;;;;;;;4976058;28;20403;-63
2023/01/14 05:53:03;;;;;;;8.52;3.58;;;;;;;;;;4991473;28;20069;-64
2023/01/14 05:55:34;;;;;;;12.43;3.38;;;;;;;;;;4991558;28;20069;-63
2023/01/14 05:58:06;;;;;;;11.05;3.17;;;;;;;;;;4975110;28;20058;-63
2023/01/14 06:06:23;;;;;;;11.95;5.22;;;;;;;;;;4991635;28;20510;-64
2023/01/14 06:08:53;;;;;;;;;;;;;;;;;;5031755;28;20041;-63
2023/01/14 06:11:25;;;;;;;12.63;5.40;;;;;;;;;;5030648;28;19921;-63
2023/01/14 06:13:57;;;;;;;12.48;6.00;;;;;;;;;;5030894;28;20068;-64
2023/01/14 06:16:38;;;;;;;19.83;6.38;;;;;;;;;;5030501;28;20045;-64
2023/01/14 06:19:14;;;;;;;12.43;5.55;;;;;;;;;;5017940;28;20060;-64
2023/01/14 06:21:45;;;;;;;10.07;4.90;;;;;;;;;;5033849;28;20489;-63
2023/01/14 06:24:15;;;;;;;11.93;4.35;;;;;;;;;;5034280;28;20044;-63
2023/01/14 06:26:46;;;;;;;9.63;4.18;;;;;;;;;;5018873;28;20057;-63
2023/01/14 06:29:16;;;;;;;6.80;3.40;;;;;;;;;;5010582;28;20056;-63
2023/01/14 06:31:46;;;;;;;10.88;3.88;;;;;;;;;;4994874;28;20050;-63
2023/01/14 06:34:17;;;;;;;7.43;3.30;;;;;;;;;;4994725;28;20510;-63
2023/01/14 06:36:48;;;;;;;7.38;3.28;;;;;;;;;;4977985;28;20057;-63
2023/01/14 06:39:18;;;;;;;7.22;3.17;;;;;;;;;;5010662;28;20050;-63
2023/01/14 06:41:48;;;;;;;10.40;3.42;;;;;;;;;;5026827;28;20058;-63
2023/01/14 06:44:19;;;;;;;6.65;3.22;;;;;;;;;;4993924;28;20057;-63
2023/01/14 06:46:49;;;;;;;6.72;2.88;;;;;;;;;;5010286;28;20061;-63
2023/01/14 06:49:20;;;;;;;7.90;2.97;;;;;;;;;;4961479;28;20065;-63
2023/01/14 06:51:50;;;;;;;4.97;2.50;;;;;;;;;;5010443;28;20065;-63
2023/01/14 06:54:21;;;;;;;5.88;2.80;;;;;;;;;;4971457;28;20426;-63
2023/01/14 06:56:51;;;;;;;5.78;2.90;;;;;;;;;;5009888;28;20049;-63
2023/01/14 06:59:21;;;;;;;5.30;2.55;;;;;;;;;;5010309;28;20494;-63
2023/01/14 07:01:52;;;;;;;5.45;2.78;;;;;;;;;;4945129;28;20057;-64
2023/01/14 07:04:22;;;;;;;4.95;2.42;;;;;;;;;;4961290;28;20046;-64
2023/01/14 07:06:53;;;;;;;5.13;2.40;;;;;;;;;;5010170;28;20564;-64
2023/01/14 07:09:24;;;;;;;8.32;2.80;;;;;;;;;;4961488;28;20093;-63
2023/01/14 07:11:55;;;;;;;5.03;2.20;;;;;;;;;;5009747;28;20053;-63
2023/01/14 07:14:25;;;;;;;4.30;2.42;;;;;;;;;;5028124;28;20125;-64
2023/01/14 07:16:55;;;;;;;3.75;1.90;;;;;;;;;;5029570;28;20049;-63
2023/01/14 07:19:26;;;;;;;4.03;2.22;;;;;;;;;;4996584;28;20057;-63
2023/01/14 07:21:56;;;;;;;4.07;2.10;;;;;;;;;;5029650;28;20069;-63
2023/01/14 07:24:27;;;;;;;3.53;2.22;;;;;;;;;;5029912;28;20152;-62
2023/01/14 07:26:57;;;;;;;4.28;2.20;;;;;;;;;;5029360;28;20053;-63
2023/01/14 07:29:28;;;;;;;4.10;2.05;;;;;;;;;;5029533;28;20045;-63
2023/01/14 07:31:58;;;;;;;4.68;2.00;;;;;;;;;;5029580;28;20568;-64
2023/01/14 07:34:29;;;;;;;4.68;1.98;;;;;;;;;;5002874;28;20054;-64
2023/01/14 07:36:59;;;;;;;4.80;2.15;;;;;;;;;;5030867;28;20045;-64
2023/01/14 07:39:30;;;;;;;4.13;2.00;;;;;;;;;;5013164;28;20057;-63
2023/01/14 07:42:00;;;;;;;6.75;2.20;;;;;;;;;;5029294;28;20556;-64
2023/01/14 07:44:31;;;;;;;3.63;2.05;;;;;;;;;;5012676;28;20050;-64
2023/01/14 07:47:01;;;;;;;5.13;2.30;;;;;;;;;;5029189;28;20244;-64
2023/01/14 07:49:34;;;;;;;4.47;2.22;;;;;;;;;;5029103;28;20046;-63
2023/01/14 07:52:05;;;;;;;4.38;2.65;;;;;;;;;;5028840;28;20061;-64
2023/01/14 07:54:36;;;;;;;4.65;2.42;;;;;;;;;;5028817;28;20065;-64
2023/01/14 07:57:08;;;;;;;4.53;2.15;;;;;;;;;;5029017;28;20069;-64
2023/01/14 07:59:39;;;;;;;3.38;2.13;;;;;;;;;;5028994;28;20042;-63
2023/01/14 08:02:12;;;;;;;5.32;2.20;;;;;;;;;;5028954;28;20049;-63
2023/01/14 08:04:43;;;;;;;4.38;2.20;;;;;;;;;;4995679;28;20045;-63
2023/01/14 08:07:13;;;;;;;3.22;1.90;;;;;;;;;;5028947;28;20467;-63
2023/01/14 08:09:43;;;;;;;3.42;1.85;;;;;;;;;;5012788;28;20640;-63
2023/01/14 08:12:14;;;;;;;3.85;2.05;;;;;;;;;;4979466;28;20489;-64
2023/01/14 08:14:44;;;;;;;3.50;1.73;;;;;;;;;;5012611;28;20049;-65
2023/01/14 08:17:17;;;;;;;3.75;2.08;;;;;;;;;;5041355;28;20076;-63
2023/01/14 08:19:48;;;;;;;6.18;1.75;;;;;;;;;;5051073;28;20041;-64
2023/01/14 08:22:18;;;;;;;3.28;1.83;;;;;;;;;;5032111;28;20060;-63
2023/01/14 08:24:50;;;;;;;2.33;1.42;;;;;;;;;;5048561;28;20059;-64
2023/01/14 08:27:20;;;;;;;4.32;2.15;;;;;;;;;;5051044;28;20033;-63
2023/01/14 08:29:51;;;;;;;7.10;2.55;;;;;;;;;;5031845;28;20048;-64
2023/01/14 08:32:21;;;;;;;3.90;1.98;;;;;;;;;;5051120;28;20045;-64
2023/01/14 08:34:51;;;;;;;4.63;1.75;;;;;;;;;;5032263;28;20057;-63
2023/01/14 08:37:21;;;;;;;4.32;2.10;;;;;;;;;;5050709;28;20041;-63
2023/01/14 08:39:52;;;;;;;5.57;2.42;;;;;;;;;;5015398;28;20057;-64
2023/01/14 08:42:23;;;;;;;4.95;2.30;;;;;;;;;;4963849;28;20072;-64
2023/01/14 08:44:53;;;;;;;3.72;2.08;;;;;;;;;;5030444;28;20055;-63
2023/01/14 08:47:23;;;;;;;3.63;2.17;;;;;;;;;;5032070;28;20061;-63
2023/01/14 08:49:53;;;;;;;3.97;1.88;;;;;;;;;;5032124;28;20053;-63
2023/01/14 08:52:23;;;;;;;7.80;2.20;;;;;;;;;;4999137;28;20054;-63
2023/01/14 08:54:53;;;;;;;3.38;1.75;;;;;;;;;;5015256;28;20057;-63
2023/01/14 08:57:23;;;;;;;3.67;1.90;;;;;;;;;;5032309;28;20045;-63
2023/01/14 08:59:53;;;;;;;4.90;2.00;;;;;;;;;;5064667;28;20488;-63
2023/01/14 09:02:23;;;;;;;7.63;2.22;;;;;;;;;;5032095;28;20062;-64
2023/01/14 09:04:53;;;;;;;5.28;2.15;;;;;;;;;;5031810;28;20065;-63
2023/01/14 09:18:37;;;;;;;6.95;3.03;;;;;;;;;;4976241;28;20046;-64
2023/01/14 09:21:08;;;;;;;5.47;2.67;;;;;;;;;;4979099;28;20498;-63
2023/01/14 09:23:38;;;;;;;6.15;2.70;;;;;;;;;;5011689;28;20053;-63
2023/01/14 09:26:08;;;;;;;6.55;2.60;;;;;;;;;;4991729;28;20074;-64
2023/01/14 09:28:38;;;;;;;10.55;3.80;;;;;;;;;;5004508;28;20053;-63
2023/01/14 09:31:08;;;;;;;10.63;3.50;;;;;;;;;;5031192;28;20494;-63
2023/01/14 09:33:38;;;;;;;11.82;4.05;;;;;;;;;;4998598;28;20484;-66
2023/01/14 09:36:08;;;;;;;15.95;5.13;;;;;;;;;;4982344;28;20849;-63
2023/01/14 09:38:38;;;;;;;17.33;5.70;;;;;;;;;;5030859;28;20091;-63
2023/01/14 09:41:24;;;;;;;24.85;6.85;;;;;;;;;;4998398;28;20410;-64
2023/01/14 09:43:55;;;;;;;21.13;5.93;;;;;;;;;;4972138;28;20503;-64
2023/01/14 09:46:27;;;;;;;26.85;7.78;;;;;;;;;;4972368;28;20513;-64
2023/01/14 09:49:01;;;;;;;22.17;6.57;;;;;;;;;;4956212;28;20054;-63
2023/01/14 09:51:51;;;;;;;13.32;4.40;;;;;;;;;;4956013;28;20054;-65
2023/01/14 09:54:39;;;;;;;11.82;4.15;;;;;;;;;;4991702;28;20054;-65
2023/01/14 09:57:33;;;;;;;16.45;5.35;;;;;;;;;;4990721;28;20505;-64
2023/01/14 10:00:15;;;;;;;18.80;5.13;;;;;;;;;;5010746;28;20549;-64
2023/01/14 10:02:56;;;;;;;20.10;5.90;;;;;;;;;;4962401;28;20053;-64
2023/01/14 10:05:34;;;;;;;18.75;6.13;;;;;;;;;;4971994;28;20638;-63
2023/01/14 10:08:11;;;;;;;24.38;6.38;;;;;;;;;;4972070;28;20066;-63
2023/01/14 10:10:45;;;;;;;14.65;4.93;;;;;;;;;;4971961;28;20074;-65
2023/01/14 10:13:31;;;;;;;19.52;5.70;;;;;;;;;;4936282;29;20051;-63
2023/01/14 10:16:24;;;;;;;22.48;7.40;;;;;;;;;;4952241;29;20055;-64
2023/01/14 10:19:06;;;;;;;19.85;6.90;;;;;;;;;;4952523;29;20063;-64
2023/01/14 10:21:38;;;;;;;27.65;7.88;;;;;;;;;;4972568;28;20054;-64
2023/01/14 10:24:15;;;;;;;28.00;6.90;;;;;;;;;;4974857;28;20061;-64
2023/01/14 10:26:50;;;;;;;26.35;7.03;;;;;;;;;;4974889;28;20054;-64
2023/01/14 10:29:23;;;;;;;25.30;7.35;;;;;;;;;;4990745;28;20090;-63
2023/01/14 10:31:57;;;;;;;;;;;;;;;;;;4957751;28;20546;-64
2023/01/14 10:34:36;;;;;;;16.23;5.57;;;;;;;;;;4994174;28;19987;-66
2023/01/14 10:37:07;;;;;;;18.73;6.32;;;;;;;;;;5010007;28;20054;-64
2023/01/14 10:39:52;;;;;;;20.50;7.10;;;;;;;;;;5010485;28;20399;-63
2023/01/14 10:42:26;;;;;;;20.70;6.65;;;;;;;;;;4989347;28;20044;-63
2023/01/14 10:44:57;;;;;;;18.65;5.45;;;;;;;;;;5020292;28;20071;-63
2023/01/14 10:47:30;;;;;;;22.20;6.63;;;;;;;;;;5069628;28;20044;-63
2023/01/14 10:50:16;;;;;;;19.85;6.78;;;;;;;;;;5069986;28;20079;-63
2023/01/14 10:52:46;;;;;;;16.63;5.75;;;;;;;;;;5019596;28;20060;-63
2023/01/14 10:55:18;;;;;;;21.75;6.53;;;;;;;;;;5036421;28;20063;-64
2023/01/14 10:58:12;;;;;;;17.98;6.40;;;;;;;;;;5069683;28;20052;-64
2023/01/14 11:00:45;;;;;;;18.85;6.03;;;;;;;;;;5020015;28;20068;-64
2023/01/14 11:03:25;;;;;;;14.65;5.15;;;;;;;;;;5069737;28;20044;-64
2023/01/14 11:06:01;;;;;;;17.42;5.47;;;;;;;;;;5069587;28;20048;-63
2023/01/14 11:08:57;;;;;;;14.80;5.63;;;;;;;;;;5068577;28;20057;-63
2023/01/14 11:11:38;;;;;;;13.52;4.97;;;;;;;;;;5019520;28;20519;-63
2023/01/14 11:14:31;;;;;;;13.13;5.30;;;;;;;;;;5071342;28;20063;-63
2023/01/14 11:17:22;;;;;;;14.15;5.70;;;;;;;;;;5072096;28;20049;-64
2023/01/14 11:20:13;;;;;;;12.32;4.80;;;;;;;;;;5089249;28;20055;-64
2023/01/14 11:22:43;;;;;;;12.57;5.35;;;;;;;;;;5055418;28;20574;-64
2023/01/14 11:25:22;;;;;;;15.20;6.53;;;;;;;;;;5039388;28;20059;-64
2023/01/14 11:27:54;;;;;;;14.25;5.97;;;;;;;;;;5089328;28;20052;-64
2023/01/14 11:30:34;;;;;;;12.18;4.45;;;;;;;;;;5170844;27;19911;-64
2023/01/14 11:33:05;;;;;;;10.25;5.10;;;;;;;;;;5149882;27;20043;-64
2023/01/14 11:35:35;;;;;;;8.85;4.07;;;;;;;;;;5150042;27;20038;-64
2023/01/14 11:38:15;;;;;;;7.20;3.17;;;;;;;;;;5149845;27;20086;-65
2023/01/14 11:44:01;;;;;;;8.80;3.80;;;;;;;;;;5113042;27;20417;-65
2023/01/14 11:46:36;;;;;;;11.50;4.50;;;;;;;;;;5149557;27;20053;-65
2023/01/14 11:49:16;;;;;;;8.32;4.13;;;;;;;;;;5149680;27;20035;-63
2023/01/14 11:52:06;;;;;;;8.48;3.67;;;;;;;;;;5149453;27;20089;-63
2023/01/14 11:54:41;;;;;;;5.57;2.97;;;;;;;;;;5149510;27;20039;-63
2023/01/14 11:57:17;;;;;;;8.20;3.70;;;;;;;;;;5149391;27;20050;-64
2023/01/14 11:59:49;;;;;;;11.20;4.68;;;;;;;;;;5112911;27;20454;-64
2023/01/14 12:02:30;;;;;;;;;;;;;;;;;;5096136;27;20039;-63
2023/01/14 12:05:10;;;;;;;15.85;6.55;;;;;;;;;;5149550;27;19919;-64
2023/01/14 12:07:50;;;;;;;12.65;5.60;;;;;;;;;;5097109;27;20055;-63
2023/01/14 12:10:30;;;;;;;13.82;4.95;;;;;;;;;;5148959;27;20414;-64
2023/01/14 12:19:18;;;;;;;11.85;4.95;;;;;;;;;;5071474;28;20514;-64
2023/01/14 12:22:18;;;;;;;16.55;7.20;;;;;;;;;;5071081;28;20051;-64
2023/01/14 12:25:10;;;;;;;14.60;5.75;;;;;;;;;;5024809;28;20053;-64
2023/01/14 12:28:01;;;;;;;19.50;10.20;;;;;;;;;;5025119;28;20398;-64
2023/01/14 12:30:52;;;;;;;13.05;6.85;;;;;;;;;;4991696;28;20053;-64
2023/01/14 12:33:29;;;;;;;13.85;4.82;;;;;;;;;;4992110;28;20062;-64
2023/01/14 12:36:05;;;;;;;15.93;8.40;;;;;;;;;;5024751;28;20417;-64
2023/01/14 12:47:42;;;;;;;15.48;7.60;;;;;;;;;;4991630;28;20407;-64
2023/01/14 12:50:15;;;;;;;14.25;6.03;;;;;;;;;;4954281;28;20556;-64
2023/01/14 12:52:54;;;;;;;13.15;5.53;;;;;;;;;;5030972;28;20414;-64
2023/01/14 12:55:26;;;;;;;;;;;;;;;;;;5014433;28;20061;-64
2023/01/14 12:57:59;;;;;;;14.90;6.35;;;;;;;;;;5031246;28;19921;-64
2023/01/14 13:00:32;;;;;;;13.25;5.65;;;;;;;;;;5014295;28;20050;-64
2023/01/14 13:03:14;;;;;;;11.43;4.55;;;;;;;;;;5049420;28;20053;-64
2023/01/14 13:05:44;;;;;;;11.20;4.38;;;;;;;;;;5017392;28;21250;-64
2023/01/14 13:08:21;;;;;;;7.60;3.65;;;;;;;;;;5050538;28;20044;-64
2023/01/14 13:11:05;;;;;;;7.20;3.90;;;;;;;;;;5050326;28;20049;-64
2023/01/14 13:13:40;;;;;;;6.30;2.75;;;;;;;;;;5017392;28;20060;-64
2023/01/14 13:16:36;;;;;;;5.45;2.47;;;;;;;;;;5026636;28;20076;-64
2023/01/14 13:19:26;;;;;;;5.28;2.72;;;;;;;;;;5090262;27;20854;-64
2023/01/14 13:22:01;;;;;;;7.80;6.60;;;;;;;;;;5133987;27;20394;-65
2023/01/14 13:24:38;;;;;;;6.55;2.67;;;;;;;;;;5133959;27;20039;-65
2023/01/14 13:27:35;;;;;;;4.32;2.30;;;;;;;;;;5133997;27;20483;-64
2023/01/14 13:30:17;;;;;;;;;;;;;;;;;;5097522;27;20058;-65
2023/01/14 13:32:53;;;;;;;7.38;2.95;;;;;;;;;;5133837;27;19920;-65
2023/01/14 13:35:24;;;;;;;8.80;3.20;;;;;;;;;;5063562;27;20502;-65
2023/01/14 13:37:56;;;;;;;7.60;3.03;;;;;;;;;;5098422;27;20058;-65
2023/01/14 13:40:36;;;;;;;6.88;3.20;;;;;;;;;;5133922;27;20051;-65
2023/01/14 13:43:24;;;;;;;5.53;2.83;;;;;;;;;;5080435;27;20054;-65
2023/01/14 13:45:59;;;;;;;5.18;2.63;;;;;;;;;;5097231;27;20050;-65
2023/01/14 13:48:41;;;;;;;6.40;2.95;;;;;;;;;;5133434;27;20402;-65
2023/01/14 13:51:38;;;;;;;7.72;3.22;;;;;;;;;;5133349;27;20042;-66
2023/01/14 13:54:21;;;;;;;6.15;3.15;;;;;;;;;;5097347;27;20058;-65
2023/01/14 13:57:06;;;;;;;7.90;3.15;;;;;;;;;;5080027;27;20054;-65
2023/01/14 13:59:41;;;;;;;7.53;4.35;;;;;;;;;;5133325;27;20375;-65
2023/01/14 14:02:44;;;;;;;6.03;3.13;;;;;;;;;;5096923;27;20055;-65
2023/01/14 14:05:32;;;;;;;5.18;2.67;;;;;;;;;;5080723;27;20399;-65
2023/01/14 14:08:05;;;;;;;5.93;3.22;;;;;;;;;;5133227;27;20812;-65
2023/01/14 14:10:57;;;;;;;5.97;3.03;;;;;;;;;;5133013;27;20066;-66
2023/01/14 14:16:41;;;;;;;6.95;3.83;;;;;;;;;;5133011;27;20035;-65
2023/01/14 14:19:30;;;;;;;7.15;3.20;;;;;;;;;;5089350;28;20060;-66
2023/01/14 14:22:20;;;;;;;4.88;2.50;;;;;;;;;;5089510;28;20060;-66
2023/01/14 14:24:56;;;;;;;7.45;2.78;;;;;;;;;;5058517;28;20060;-65
2023/01/14 14:27:37;;;;;;;5.50;2.80;;;;;;;;;;5089445;28;20056;-65
2023/01/14 14:30:11;;;;;;;4.97;2.78;;;;;;;;;;5088851;28;20044;-65
2023/01/14 14:32:50;;;;;;;6.07;4.10;;;;;;;;;;5039228;28;20056;-64
2023/01/14 14:35:22;;;;;;;4.68;2.30;;;;;;;;;;5039082;28;20060;-66
2023/01/14 14:38:00;;;;;;;10.00;2.60;;;;;;;;;;5068633;28;20052;-66
2023/01/14 14:40:34;;;;;;;4.25;2.00;;;;;;;;;;5051659;28;20050;-66
2023/01/14 14:43:05;;;;;;;3.42;1.98;;;;;;;;;;5019120;28;20052;-66
2023/01/14 14:45:37;;;;;;;3.03;1.85;;;;;;;;;;5068909;28;20064;-65
2023/01/14 14:48:28;;;;;;;3.45;2.15;;;;;;;;;;5051793;28;20583;-65
2023/01/14 14:50:58;;;;;;;4.00;2.20;;;;;;;;;;5068519;28;20057;-65
2023/01/14 14:53:33;;;;;;;3.70;2.10;;;;;;;;;;5068345;28;20052;-65
2023/01/14 14:56:06;;;;;;;2.90;2.25;;;;;;;;;;5072406;28;20059;-65
2023/01/14 14:58:37;;;;;;;2.08;1.33;;;;;;;;;;5088615;28;20474;-65
2023/01/14 15:01:07;;;;;;;2.53;1.35;;;;;;;;;;5071894;28;20060;-65
2023/01/14 15:03:39;;;;;;;2.83;1.75;;;;;;;;;;5088242;28;20103;-65
2023/01/14 15:06:12;;;;;;;6.18;1.63;;;;;;;;;;5048103;28;20057;-65
2023/01/14 15:08:59;;;;;;;6.85;1.40;;;;;;;;;;5007094;28;20056;-65
2023/01/14 15:11:43;;;;;;;3.28;1.15;;;;;;;;;;5034859;28;20056;-66
2023/01/14 15:14:35;;;;;;;5.88;2.10;;;;;;;;;;5068362;28;20044;-65
2023/01/14 15:17:17;;;;;;;4.13;2.08;;;;;;;;;;5067978;28;20051;-65
2023/01/14 15:19:51;;;;;;;8.43;2.60;;;;;;;;;;5008574;28;20049;-65
2023/01/14 15:22:25;;;;;;;4.80;2.15;;;;;;;;;;5008466;28;20058;-65
2023/01/14 15:24:56;;;;;;;3.97;2.47;;;;;;;;;;5024993;28;20049;-65
2023/01/14 15:27:29;;;;;;;3.65;2.05;;;;;;;;;;5008408;28;20054;-65
2023/01/14 15:30:02;;;;;;;8.38;5.20;;;;;;;;;;4975771;28;20058;-65
2023/01/14 15:32:33;;;;;;;3.85;2.20;;;;;;;;;;5008565;28;20062;-65
2023/01/14 15:35:47;;;;;;;4.25;2.20;;;;;;;;;;4988943;28;20199;-65
2023/01/14 15:38:18;;;;;;;2.92;2.00;;;;;;;;;;4880769;29;20055;-67
2023/01/14 15:40:49;;;;;;;7.03;2.88;;;;;;;;;;4911933;29;20461;-65
2023/01/14 15:43:31;;;;;;;3.95;2.33;;;;;;;;;;4906465;29;20064;-65
2023/01/14 15:46:27;;;;;;;3.10;1.90;;;;;;;;;;4893137;29;20135;-65
2023/01/14 15:49:00;;;;;;;2.67;1.75;;;;;;;;;;4892412;29;20101;-65
2023/01/14 15:51:38;;;;;;;2.90;1.83;;;;;;;;;;4893073;29;20065;-66
2023/01/14 15:54:27;;;;;;;3.35;1.80;;;;;;;;;;4892877;29;20518;-66
2023/01/14 15:57:14;;;;;;;2.55;1.42;;;;;;;;;;4910159;29;20511;-66
2023/01/14 16:00:09;;;;;;;3.33;2.20;;;;;;;;;;4933794;29;20500;-65
2023/01/14 16:02:39;;;;;;;3.80;1.80;;;;;;;;;;4950179;29;20527;-65
2023/01/14 16:05:35;;;;;;;4.03;1.90;;;;;;;;;;4971223;28;20530;-65
2023/01/14 16:08:13;;;;;;;2.83;1.70;;;;;;;;;;4988730;28;20069;-65
2023/01/14 16:10:44;;;;;;;7.57;2.92;;;;;;;;;;4988205;28;21228;-64
2023/01/14 16:13:20;;;;;;;3.15;1.83;;;;;;;;;;5016744;28;20065;-64
2023/01/14 16:15:54;;;;;;;2.72;1.92;;;;;;;;;;5072113;27;20055;-65
2023/01/14 16:18:25;;;;;;;2.83;1.75;;;;;;;;;;5082188;27;20047;-64
2023/01/14 16:20:56;;;;;;;3.67;2.05;;;;;;;;;;5032126;27;20080;-63
2023/01/14 16:23:29;;;;;;;2.70;1.80;;;;;;;;;;5135206;27;20039;-64
2023/01/14 16:26:02;;;;;;;4.38;2.83;;;;;;;;;;5134941;27;20117;-64
2023/01/14 16:28:34;;;;;;;3.08;2.10;;;;;;;;;;5134789;27;20043;-64